Time;durP1;ratioP1;P1;durP2;ratioP2;P2;SDS_P1;SDS_P2;PMS_P1;PMS_P2;Temp;Humidity;BMP_temperature;BMP_pressure;BME280_temperature;BME280_humidity;BME280_pressure;Samples;Min_cycle;Max_cycle;Signal;HPM_P1;HPM_P2
2023/03/19 00:01:53;;;;;;;15.93;7.88;;;12.60;99.90;;;;;;5012555;28;20026;-51
2023/03/19 00:04:19;;;;;;;32.05;16.60;;;12.50;99.90;;;;;;5012366;28;20548;-48
2023/03/19 00:06:45;;;;;;;19.30;10.00;;;12.50;99.90;;;;;;5012257;28;20026;-48
2023/03/19 00:09:10;;;;;;;14.95;10.63;;;12.50;99.90;;;;;;5012284;28;20018;-51
2023/03/19 00:11:36;;;;;;;19.15;9.65;;;12.50;99.90;;;;;;5012237;28;20057;-51
2023/03/19 00:14:01;;;;;;;23.75;8.55;;;12.50;99.90;;;;;;5012294;28;20157;-51
2023/03/19 00:16:27;;;;;;;22.25;9.00;;;12.50;99.90;;;;;;5012143;28;20056;-50
2023/03/19 00:18:53;;;;;;;14.38;8.75;;;12.40;99.90;;;;;;5012171;28;20030;-47
2023/03/19 00:21:19;;;;;;;15.10;9.55;;;12.50;99.90;;;;;;5011162;28;20032;-49
2023/03/19 00:23:45;;;;;;;21.40;9.35;;;12.40;99.90;;;;;;5011053;28;20112;-51
2023/03/19 00:26:11;;;;;;;13.40;7.38;;;12.40;99.90;;;;;;5012095;28;20254;-52
2023/03/19 00:28:37;;;;;;;13.45;7.32;;;12.40;99.90;;;;;;5012096;28;20029;-50
2023/03/19 00:31:07;;;;;;;14.80;7.43;;;12.30;99.90;;;;;;5011983;28;20022;-51
2023/03/19 00:33:33;;;;;;;14.77;7.72;;;12.30;99.90;;;;;;5010831;28;20022;-53
2023/03/19 00:35:59;;;;;;;20.10;7.80;;;12.30;99.90;;;;;;5012146;28;20113;-54
2023/03/19 00:38:24;;;;;;;19.52;8.13;;;12.30;99.90;;;;;;5011838;28;20405;-51
2023/03/19 00:40:50;;;;;;;10.82;7.10;;;12.20;99.90;;;;;;5012185;28;20037;-54
2023/03/19 00:43:16;;;;;;;14.20;8.00;;;12.20;99.90;;;;;;5011818;28;20042;-50
2023/03/19 00:45:41;;;;;;;10.80;7.47;;;12.20;99.90;;;;;;5011957;28;20478;-52
2023/03/19 00:48:07;;;;;;;17.70;8.20;;;12.20;99.90;;;;;;5011847;28;20482;-50
2023/03/19 00:50:32;;;;;;;15.85;9.10;;;12.10;99.90;;;;;;5011753;28;20033;-50
2023/03/19 00:52:58;;;;;;;13.75;7.78;;;12.10;99.90;;;;;;5011875;28;20026;-50
2023/03/19 00:55:24;;;;;;;13.32;7.30;;;12.10;99.90;;;;;;5010435;28;20032;-50
2023/03/19 00:57:50;;;;;;;15.60;7.85;;;12.00;99.90;;;;;;5010444;28;20026;-51
2023/03/19 01:00:17;;;;;;;15.48;7.38;;;12.00;99.90;;;;;;5011576;28;20105;-48
2023/03/19 01:02:42;;;;;;;15.80;7.35;;;12.10;99.90;;;;;;5011730;28;20101;-52
2023/03/19 01:05:08;;;;;;;15.77;6.70;;;12.10;99.90;;;;;;5012136;28;20196;-49
2023/03/19 01:07:34;;;;;;;17.33;7.13;;;12.00;99.90;;;;;;5012418;28;20029;-53
2023/03/19 01:09:59;;;;;;;14.95;7.20;;;11.90;99.90;;;;;;5015325;28;20041;-51
2023/03/19 01:12:25;;;;;;;14.25;8.32;;;11.90;99.90;;;;;;5017070;28;20018;-51
2023/03/19 01:14:51;;;;;;;16.17;8.27;;;11.90;99.90;;;;;;5016347;28;20029;-49
2023/03/19 01:17:16;;;;;;;15.70;9.38;;;11.80;99.90;;;;;;5015643;28;20061;-53
2023/03/19 01:19:42;;;;;;;15.38;8.07;;;11.80;99.90;;;;;;5014306;28;20040;-49
2023/03/19 01:22:08;;;;;;;14.10;8.48;;;11.80;99.90;;;;;;5014327;28;20395;-49
2023/03/19 01:24:34;;;;;;;10.75;7.03;;;11.80;99.90;;;;;;5015628;28;20026;-53
2023/03/19 01:27:00;;;;;;;11.32;7.05;;;11.80;99.90;;;;;;5015401;28;20079;-49
2023/03/19 01:29:25;;;;;;;12.95;7.50;;;11.80;99.90;;;;;;5015351;28;20390;-52
2023/03/19 01:31:51;;;;;;;15.02;7.53;;;11.70;99.90;;;;;;5015531;28;20018;-51
2023/03/19 01:34:16;;;;;;;11.10;6.85;;;11.70;99.90;;;;;;5015773;28;20022;-52
2023/03/19 01:36:42;;;;;;;8.32;6.10;;;11.70;99.90;;;;;;5015421;28;20030;-51
2023/03/19 01:39:08;;;;;;;10.25;6.68;;;11.70;99.90;;;;;;5014849;28;20044;-53
2023/03/19 01:41:34;;;;;;;10.60;7.75;;;11.60;99.90;;;;;;5015089;28;20018;-54
2023/03/19 01:43:59;;;;;;;20.15;7.63;;;11.60;99.90;;;;;;5015046;28;20032;-52
2023/03/19 01:46:29;;;;;;;15.13;7.80;;;11.60;99.90;;;;;;5014835;28;20030;-54
2023/03/19 01:48:58;;;;;;;10.52;6.68;;;11.60;99.90;;;;;;5015226;28;20026;-53
2023/03/19 01:51:33;;;;;;;13.80;7.05;;;11.60;99.90;;;;;;5014867;28;20022;-54
2023/03/19 01:54:02;;;;;;;10.73;6.73;;;11.60;99.90;;;;;;5014950;28;20026;-51
2023/03/19 01:56:35;;;;;;;8.43;6.72;;;11.50;99.90;;;;;;5014763;28;20460;-52
2023/03/19 01:59:06;;;;;;;12.63;7.78;;;11.50;99.90;;;;;;5013631;28;20049;-51
2023/03/19 02:01:37;;;;;;;13.68;7.70;;;11.60;99.90;;;;;;5014697;28;20030;-53
2023/03/19 02:04:03;;;;;;;14.35;7.25;;;11.60;99.90;;;;;;5014698;28;20030;-54
2023/03/19 02:06:30;;;;;;;11.82;7.40;;;11.60;99.90;;;;;;5014485;28;20498;-53
2023/03/19 02:08:57;;;;;;;10.85;7.10;;;11.70;99.90;;;;;;5014518;28;20026;-54
2023/03/19 02:11:23;;;;;;;11.73;7.57;;;11.80;99.90;;;;;;5014735;28;20097;-54
2023/03/19 02:13:48;;;;;;;13.40;7.53;;;11.80;99.90;;;;;;5014612;28;20058;-52
2023/03/19 02:16:14;;;;;;;8.35;6.47;;;11.80;99.90;;;;;;5015076;28;20026;-52
2023/03/19 02:18:40;;;;;;;9.57;6.40;;;11.70;99.90;;;;;;5014602;28;20113;-49
2023/03/19 02:21:13;;;;;;;12.38;6.50;;;11.80;99.90;;;;;;5013939;28;20044;-51
2023/03/19 02:24:05;;;;;;;12.95;6.90;;;11.80;99.90;;;;;;5015695;28;20033;-49
2023/03/19 02:26:31;;;;;;;10.75;6.90;;;11.80;99.90;;;;;;5015590;28;20057;-49
2023/03/19 02:28:56;;;;;;;15.38;6.45;;;11.70;99.90;;;;;;5015746;28;20022;-52
2023/03/19 02:31:22;;;;;;;9.10;6.15;;;11.70;99.90;;;;;;5014420;28;20030;-51
2023/03/19 02:34:24;;;;;;;11.13;6.22;;;11.70;99.90;;;;;;5014832;28;20022;-53
2023/03/19 02:36:59;;;;;;;12.88;6.55;;;11.70;99.90;;;;;;5003495;28;20038;-54
2023/03/19 02:39:33;;;;;;;12.43;6.82;;;11.60;99.90;;;;;;5013764;28;20029;-50
2023/03/19 02:42:01;;;;;;;19.30;7.07;;;11.60;99.90;;;;;;5014148;28;20410;-52
2023/03/19 02:44:26;;;;;;;10.95;5.80;;;11.60;99.90;;;;;;5014298;28;20034;-52
2023/03/19 02:46:52;;;;;;;18.55;7.43;;;11.50;99.90;;;;;;5013937;28;20543;-53
2023/03/19 02:49:17;;;;;;;12.30;6.85;;;11.60;99.90;;;;;;5013890;28;20033;-50
2023/03/19 02:51:43;;;;;;;10.48;7.28;;;11.60;99.90;;;;;;5013844;28;20022;-48
2023/03/19 02:54:09;;;;;;;14.27;7.65;;;11.50;99.90;;;;;;5014082;28;20101;-53
2023/03/19 02:56:35;;;;;;;13.20;7.22;;;11.50;99.90;;;;;;5013812;28;20022;-49
2023/03/19 02:59:00;;;;;;;10.07;6.63;;;11.50;99.90;;;;;;5013698;28;20030;-52
2023/03/19 03:01:26;;;;;;;11.80;7.55;;;11.50;99.90;;;;;;5013644;28;20073;-53
2023/03/19 03:03:51;;;;;;;14.68;7.15;;;11.40;99.90;;;;;;5013674;28;20030;-52
2023/03/19 03:06:17;;;;;;;13.40;7.43;;;11.40;99.90;;;;;;5013519;28;20034;-51
2023/03/19 03:08:43;;;;;;;11.23;6.43;;;11.40;99.90;;;;;;5013627;28;20096;-52
2023/03/19 03:11:08;;;;;;;13.35;7.60;;;11.40;99.90;;;;;;5013222;28;20052;-51
2023/03/19 03:13:34;;;;;;;15.63;8.00;;;11.40;99.90;;;;;;5013436;28;20018;-53
2023/03/19 03:16:00;;;;;;;9.25;6.88;;;11.40;99.90;;;;;;5013420;28;20026;-54
2023/03/19 03:18:26;;;;;;;13.65;7.47;;;11.50;99.90;;;;;;5013568;28;20497;-53
2023/03/19 03:20:52;;;;;;;13.27;6.93;;;11.40;99.90;;;;;;5013094;28;20045;-51
2023/03/19 03:23:18;;;;;;;12.82;6.45;;;11.30;99.90;;;;;;5013408;28;20033;-48
2023/03/19 03:25:47;;;;;;;8.45;6.22;;;11.30;99.90;;;;;;5013233;28;20026;-52
2023/03/19 03:28:12;;;;;;;12.82;6.97;;;11.10;99.90;;;;;;5013311;28;20113;-53
2023/03/19 03:30:38;;;;;;;12.40;6.65;;;11.10;99.90;;;;;;5013044;28;20157;-48
2023/03/19 03:33:03;;;;;;;13.00;6.97;;;11.10;99.90;;;;;;5012919;28;20473;-52
2023/03/19 03:35:29;;;;;;;13.73;6.82;;;11.10;99.90;;;;;;5013057;28;20033;-56
2023/03/19 03:37:55;;;;;;;13.48;7.13;;;11.10;99.90;;;;;;5012611;28;20409;-54
2023/03/19 03:40:20;;;;;;;17.90;7.53;;;11.10;99.90;;;;;;5012528;28;20551;-54
2023/03/19 03:42:46;;;;;;;14.10;8.25;;;11.00;99.90;;;;;;5012969;28;20029;-54
2023/03/19 03:45:12;;;;;;;12.02;7.13;;;11.00;99.90;;;;;;5012845;28;20033;-55
2023/03/19 03:47:38;;;;;;;14.77;8.10;;;10.90;99.90;;;;;;5012687;28;20097;-52
2023/03/19 03:50:04;;;;;;;15.00;7.32;;;11.00;99.90;;;;;;5012679;28;20049;-54
2023/03/19 03:52:32;;;;;;;17.25;7.28;;;10.90;99.90;;;;;;5012762;28;20033;-55
2023/03/19 03:54:58;;;;;;;15.13;7.03;;;11.00;99.90;;;;;;5012804;28;20396;-56
2023/03/19 03:57:24;;;;;;;12.65;7.57;;;11.00;99.90;;;;;;5012580;28;20105;-54
2023/03/19 03:59:50;;;;;;;14.13;7.80;;;11.10;99.90;;;;;;5012665;28;20022;-54
2023/03/19 04:02:15;;;;;;;15.00;7.07;;;11.10;99.90;;;;;;5012502;28;20076;-54
2023/03/19 04:04:41;;;;;;;17.67;6.82;;;11.10;99.90;;;;;;5011283;28;20026;-54
2023/03/19 04:07:07;;;;;;;14.13;7.25;;;11.10;99.90;;;;;;5012568;28;20056;-51
2023/03/19 04:09:33;;;;;;;10.07;6.93;;;11.00;99.90;;;;;;5012441;28;20053;-51
2023/03/19 04:11:59;;;;;;;10.32;6.75;;;11.00;99.90;;;;;;5012754;28;20105;-55
2023/03/19 04:14:25;;;;;;;9.00;6.97;;;11.10;99.90;;;;;;5012565;28;20026;-54
2023/03/19 04:16:50;;;;;;;13.40;6.68;;;11.10;99.90;;;;;;5012002;28;20065;-50
2023/03/19 04:19:16;;;;;;;9.77;6.80;;;11.20;99.90;;;;;;5012078;28;20131;-51
2023/03/19 04:21:41;;;;;;;13.65;8.45;;;11.10;99.90;;;;;;5012067;28;20022;-53
2023/03/19 04:24:09;;;;;;;12.02;7.50;;;11.00;99.90;;;;;;5012251;28;20078;-51
2023/03/19 04:26:36;;;;;;;9.85;6.43;;;11.10;99.90;;;;;;5011893;28;20033;-51
2023/03/19 04:29:02;;;;;;;9.98;7.47;;;11.00;99.90;;;;;;5011942;28;20030;-53
2023/03/19 04:31:27;;;;;;;8.73;6.22;;;11.00;99.90;;;;;;5011810;28;20608;-50
2023/03/19 04:33:53;;;;;;;15.00;7.00;;;11.00;99.90;;;;;;5012061;28;20100;-52
2023/03/19 04:36:19;;;;;;;9.50;6.60;;;11.00;99.90;;;;;;5012093;28;20037;-48
2023/03/19 04:38:45;;;;;;;10.20;6.72;;;10.90;99.90;;;;;;5011962;28;20030;-48
2023/03/19 04:41:12;;;;;;;13.07;6.95;;;10.80;99.90;;;;;;5011751;28;20096;-48
2023/03/19 04:43:38;;;;;;;12.18;6.45;;;10.70;99.90;;;;;;5010092;28;20030;-51
2023/03/19 04:46:05;;;;;;;9.63;6.50;;;10.70;99.90;;;;;;5011764;28;20117;-51
2023/03/19 04:48:32;;;;;;;11.90;7.10;;;10.70;99.90;;;;;;5012359;28;20371;-49
2023/03/19 04:50:58;;;;;;;12.23;7.43;;;10.70;99.90;;;;;;5012294;28;20482;-54
2023/03/19 04:53:23;;;;;;;9.90;6.45;;;10.80;99.90;;;;;;5012492;28;20030;-52
2023/03/19 04:55:50;;;;;;;8.35;5.53;;;10.80;99.90;;;;;;5011684;28;20104;-54
2023/03/19 04:58:16;;;;;;;8.93;5.70;;;10.80;99.90;;;;;;5011817;28;20516;-51
2023/03/19 05:00:42;;;;;;;11.07;6.50;;;10.80;99.90;;;;;;5011758;28;20033;-51
2023/03/19 05:03:07;;;;;;;11.73;5.65;;;10.70;99.90;;;;;;5011905;28;20393;-53
2023/03/19 05:05:33;;;;;;;12.20;6.82;;;10.70;99.90;;;;;;5010349;28;20033;-51
2023/03/19 05:07:58;;;;;;;10.45;6.68;;;10.80;99.90;;;;;;5011669;28;20026;-50
2023/03/19 05:10:24;;;;;;;8.82;6.10;;;10.80;99.90;;;;;;5011367;28;20034;-49
2023/03/19 05:12:49;;;;;;;14.98;6.30;;;10.70;99.90;;;;;;5011848;28;20026;-51
2023/03/19 05:15:15;;;;;;;9.00;5.47;;;10.60;99.90;;;;;;5012003;28;20398;-50
2023/03/19 05:17:41;;;;;;;8.63;5.75;;;10.60;99.90;;;;;;5011986;28;20081;-47
2023/03/19 05:20:08;;;;;;;8.27;5.90;;;10.60;99.90;;;;;;5011752;28;20022;-51
2023/03/19 05:22:34;;;;;;;13.65;5.85;;;10.50;99.90;;;;;;5010681;28;20105;-48
2023/03/19 05:24:59;;;;;;;10.80;5.97;;;10.50;99.90;;;;;;5011894;28;20511;-49
2023/03/19 05:27:25;;;;;;;11.68;6.38;;;10.40;99.90;;;;;;5011729;28;20032;-50
2023/03/19 05:29:50;;;;;;;9.95;6.10;;;10.40;99.90;;;;;;5010648;28;20049;-53
2023/03/19 05:32:16;;;;;;;9.30;6.55;;;10.40;99.90;;;;;;5012190;28;20100;-54
2023/03/19 05:34:42;;;;;;;10.13;6.70;;;10.40;99.90;;;;;;5012031;28;20492;-54
2023/03/19 05:37:08;;;;;;;11.35;6.43;;;10.40;99.90;;;;;;5011264;28;20105;-50
2023/03/19 05:39:34;;;;;;;10.43;6.60;;;10.40;99.90;;;;;;5011364;28;20026;-54
2023/03/19 05:41:59;;;;;;;11.10;6.40;;;10.40;99.90;;;;;;5011545;28;20030;-54
2023/03/19 05:44:25;;;;;;;9.48;6.63;;;10.40;99.90;;;;;;5010157;28;20417;-51
2023/03/19 05:46:51;;;;;;;8.80;6.55;;;10.40;99.90;;;;;;5011341;28;20108;-54
2023/03/19 05:49:16;;;;;;;12.15;5.80;;;10.30;99.90;;;;;;5011193;28;20555;-53
2023/03/19 05:51:42;;;;;;;10.93;6.43;;;10.30;99.90;;;;;;5011433;28;20080;-53
2023/03/19 05:54:07;;;;;;;9.55;6.43;;;10.30;99.90;;;;;;5011489;28;20029;-52
2023/03/19 05:56:33;;;;;;;12.30;7.72;;;10.30;99.90;;;;;;5013977;28;20026;-52
2023/03/19 06:01:28;;;;;;;11.50;6.45;;;10.30;99.90;;;;;;5052434;22;20194;-43
2023/03/19 06:03:54;;;;;;;11.88;6.55;;;10.30;99.90;;;;;;5034200;28;20037;-46
2023/03/19 06:06:19;;;;;;;9.57;5.65;;;10.30;99.90;;;;;;5033930;28;20033;-44
2023/03/19 06:08:45;;;;;;;9.73;6.28;;;10.30;99.90;;;;;;5034692;28;20064;-48
2023/03/19 06:11:11;;;;;;;13.95;6.38;;;10.30;99.90;;;;;;5034117;28;20054;-51
2023/03/19 06:13:37;;;;;;;9.38;6.30;;;10.40;99.90;;;;;;5034671;28;20100;-47
2023/03/19 06:16:02;;;;;;;7.95;5.75;;;10.40;99.90;;;;;;5034428;28;20074;-45
2023/03/19 06:18:28;;;;;;;10.70;6.22;;;10.50;99.90;;;;;;5033871;28;20531;-44
2023/03/19 06:20:54;;;;;;;10.35;6.28;;;10.50;99.90;;;;;;5033710;28;20017;-44
2023/03/19 06:23:19;;;;;;;11.20;6.15;;;10.60;99.90;;;;;;5033888;28;20020;-45
2023/03/19 06:25:45;;;;;;;11.55;5.75;;;10.60;99.90;;;;;;5033762;28;20452;-49
2023/03/19 06:28:11;;;;;;;13.85;6.25;;;10.70;99.90;;;;;;5033874;28;20394;-43
2023/03/19 06:30:36;;;;;;;10.73;5.53;;;10.70;99.90;;;;;;5033367;28;20030;-49
2023/03/19 06:33:02;;;;;;;10.05;5.90;;;10.70;99.90;;;;;;5033314;28;20600;-45
2023/03/19 06:35:28;;;;;;;6.93;5.95;;;10.80;99.90;;;;;;5033459;28;20031;-44
2023/03/19 06:37:53;;;;;;;13.57;6.40;;;10.80;99.90;;;;;;5033268;28;20097;-46
2023/03/19 06:40:19;;;;;;;13.55;6.22;;;10.90;99.90;;;;;;5033480;28;20076;-43
2023/03/19 06:42:46;;;;;;;13.15;6.20;;;10.90;99.90;;;;;;5033959;28;20017;-46
2023/03/19 06:45:12;;;;;;;16.65;6.00;;;11.00;99.90;;;;;;5015705;28;20029;-45
2023/03/19 06:47:40;;;;;;;9.15;7.10;;;11.10;99.90;;;;;;5033300;28;20112;-43
2023/03/19 06:50:06;;;;;;;9.85;6.13;;;11.20;99.90;;;;;;5033158;28;20022;-43
2023/03/19 06:52:31;;;;;;;9.73;5.43;;;11.20;99.90;;;;;;5033429;28;20434;-43
2023/03/19 06:54:57;;;;;;;9.48;5.93;;;11.30;99.90;;;;;;5033348;28;20053;-45
2023/03/19 06:57:22;;;;;;;10.55;6.20;;;11.40;99.90;;;;;;5033179;28;20100;-44
2023/03/19 06:59:48;;;;;;;6.30;5.47;;;11.40;99.90;;;;;;5033012;28;20345;-45
2023/03/19 07:02:14;;;;;;;10.73;5.82;;;11.40;99.90;;;;;;5032908;28;20037;-47
2023/03/19 07:04:39;;;;;;;11.00;6.18;;;11.40;99.90;;;;;;5033107;28;20027;-44
2023/03/19 07:07:05;;;;;;;9.77;6.50;;;11.40;99.90;;;;;;5032340;28;20112;-47
2023/03/19 07:09:31;;;;;;;12.18;7.72;;;11.40;99.90;;;;;;5032831;28;20025;-44
2023/03/19 07:11:56;;;;;;;8.45;5.68;;;11.40;99.90;;;;;;5033037;28;20029;-45
2023/03/19 07:14:23;;;;;;;11.10;6.13;;;11.50;99.90;;;;;;5033440;28;20056;-44
2023/03/19 07:16:48;;;;;;;13.23;5.63;;;11.60;99.90;;;;;;5033210;28;20488;-43
2023/03/19 07:19:14;;;;;;;9.63;6.47;;;11.70;99.90;;;;;;5032696;28;20048;-46
2023/03/19 07:21:40;;;;;;;9.93;6.47;;;11.80;99.90;;;;;;5032785;28;20033;-45
2023/03/19 07:24:06;;;;;;;11.63;6.18;;;11.90;99.90;;;;;;5032869;28;20113;-49
2023/03/19 07:26:32;;;;;;;9.10;6.03;;;11.90;99.90;;;;;;5032812;28;20101;-47
2023/03/19 07:28:57;;;;;;;10.88;5.95;;;11.90;99.90;;;;;;5033236;28;20438;-46
2023/03/19 07:31:22;;;;;;;10.70;6.82;;;12.00;99.90;;;;;;5032469;28;20091;-51
2023/03/19 07:33:48;;;;;;;8.18;5.35;;;12.00;99.90;;;;;;5015655;28;20033;-48
2023/03/19 07:36:13;;;;;;;10.32;5.90;;;12.20;99.90;;;;;;5032721;28;20025;-49
2023/03/19 07:38:39;;;;;;;13.98;7.22;;;12.20;99.90;;;;;;5032530;28;20025;-49
2023/03/19 07:41:05;;;;;;;9.43;6.55;;;12.40;99.90;;;;;;5032469;28;20093;-47
2023/03/19 07:43:30;;;;;;;11.15;5.97;;;12.30;99.90;;;;;;5032423;28;20025;-47
2023/03/19 07:45:56;;;;;;;9.45;5.93;;;12.40;99.90;;;;;;5032535;28;20108;-44
2023/03/19 07:48:21;;;;;;;10.70;6.75;;;12.50;99.90;;;;;;5032792;28;20104;-44
2023/03/19 07:50:50;;;;;;;9.43;6.07;;;12.50;99.90;;;;;;5032123;28;20027;-46
2023/03/19 07:53:15;;;;;;;7.10;5.70;;;12.60;99.90;;;;;;5032223;28;20018;-44
2023/03/19 07:55:41;;;;;;;12.88;5.60;;;12.70;99.90;;;;;;5032290;28;20444;-47
2023/03/19 07:58:06;;;;;;;8.45;5.25;;;12.90;99.90;;;;;;5032175;28;20041;-45
2023/03/19 08:00:32;;;;;;;11.73;5.43;;;13.00;99.90;;;;;;5031955;28;20112;-43
2023/03/19 08:02:57;;;;;;;9.48;6.78;;;13.10;99.90;;;;;;5032151;28;20087;-49
2023/03/19 08:05:23;;;;;;;10.20;4.90;;;13.30;99.90;;;;;;5032016;28;20404;-45
2023/03/19 08:07:50;;;;;;;8.52;5.40;;;13.50;99.90;;;;;;5032046;28;20018;-44
2023/03/19 08:10:15;;;;;;;8.90;5.50;;;13.50;99.90;;;;;;5031819;28;20450;-44
2023/03/19 08:12:41;;;;;;;6.95;5.38;;;13.60;99.90;;;;;;5032136;28;20053;-49
2023/03/19 08:15:09;;;;;;;9.90;6.15;;;13.90;99.90;;;;;;5032216;28;20079;-45
2023/03/19 08:17:37;;;;;;;7.60;5.70;;;14.00;99.90;;;;;;5032092;28;20426;-44
2023/03/19 08:20:04;;;;;;;8.98;5.53;;;14.10;99.90;;;;;;5031159;28;20025;-44
2023/03/19 08:22:30;;;;;;;8.30;5.32;;;14.00;99.90;;;;;;5032259;28;20022;-47
2023/03/19 08:24:55;;;;;;;8.98;5.25;;;14.20;99.90;;;;;;5031928;28;20037;-49
2023/03/19 08:27:21;;;;;;;8.00;5.38;;;14.30;99.90;;;;;;5031883;28;20096;-46
2023/03/19 08:29:46;;;;;;;7.85;4.72;;;14.30;99.90;;;;;;5032346;28;20052;-44
2023/03/19 08:32:12;;;;;;;7.05;4.50;;;14.50;99.90;;;;;;5031838;28;20041;-48
2023/03/19 08:34:37;;;;;;;7.55;4.28;;;14.60;99.90;;;;;;5031851;28;20032;-43
2023/03/19 08:37:03;;;;;;;7.82;4.53;;;14.60;99.90;;;;;;5032187;28;20040;-46
2023/03/19 08:39:28;;;;;;;10.95;4.47;;;14.40;99.90;;;;;;5031739;28;20040;-48
2023/03/19 08:41:54;;;;;;;6.50;4.22;;;14.40;99.90;;;;;;5030000;28;20390;-46
2023/03/19 08:44:19;;;;;;;6.03;4.35;;;14.40;99.90;;;;;;5032151;28;20033;-46
2023/03/19 08:46:45;;;;;;;7.85;3.80;;;14.40;99.90;;;;;;5026670;28;20048;-45
2023/03/19 08:49:10;;;;;;;6.85;3.67;;;14.40;99.90;;;;;;4994130;28;20022;-46
2023/03/19 08:51:36;;;;;;;6.43;4.32;;;14.40;99.90;;;;;;5023900;28;20702;-49
2023/03/19 08:54:01;;;;;;;10.88;4.30;;;14.40;99.90;;;;;;5033357;28;20041;-47
2023/03/19 08:56:27;;;;;;;6.93;3.58;;;14.50;99.90;;;;;;5031673;28;20038;-47
2023/03/19 08:58:55;;;;;;;12.48;4.05;;;14.60;99.90;;;;;;5031044;28;20078;-46
2023/03/19 09:01:21;;;;;;;5.25;3.67;;;14.60;99.90;;;;;;5028172;28;20025;-47
2023/03/19 09:03:46;;;;;;;4.65;3.22;;;14.70;99.90;;;;;;5012416;28;20040;-48
2023/03/19 09:06:13;;;;;;;7.50;4.25;;;14.90;99.90;;;;;;5021175;28;20046;-45
2023/03/19 09:08:40;;;;;;;5.57;3.60;;;14.80;99.90;;;;;;5031507;28;20024;-48
2023/03/19 09:11:05;;;;;;;5.95;3.35;;;14.90;99.90;;;;;;5031041;28;20032;-47
2023/03/19 09:13:31;;;;;;;6.60;2.85;;;15.30;99.90;;;;;;5031296;28;20689;-45
2023/03/19 09:15:57;;;;;;;7.72;3.67;;;16.10;99.90;;;;;;5031081;28;20101;-45
2023/03/19 09:18:24;;;;;;;3.83;3.42;;;16.60;99.90;;;;;;5031151;28;20029;-50
2023/03/19 09:20:50;;;;;;;5.60;3.25;;;17.50;99.90;;;;;;5031062;28;20080;-50
2023/03/19 09:23:15;;;;;;;7.75;4.15;;;18.60;98.70;;;;;;5031106;28;20031;-55
2023/03/19 09:25:41;;;;;;;7.75;3.92;;;19.70;97.20;;;;;;5030735;28;20029;-50
2023/03/19 09:28:07;;;;;;;5.65;3.33;;;19.90;96.00;;;;;;5022933;28;20029;-51
2023/03/19 09:30:33;;;;;;;5.50;3.28;;;20.30;94.90;;;;;;5012319;28;20022;-49
2023/03/19 09:32:59;;;;;;;4.78;3.42;;;20.20;94.10;;;;;;5029692;28;20030;-52
2023/03/19 09:35:29;;;;;;;6.38;3.70;;;19.90;94.60;;;;;;5035661;28;20049;-50
2023/03/19 09:37:56;;;;;;;4.88;3.25;;;19.30;94.80;;;;;;5035064;28;20433;-47
2023/03/19 09:40:26;;;;;;;4.32;2.95;;;18.50;95.80;;;;;;5034454;28;20311;-49
2023/03/19 09:43:13;;;;;;;5.75;3.35;;;18.30;97.00;;;;;;5035630;28;20469;-45
2023/03/19 09:45:38;;;;;;;5.88;3.75;;;18.10;97.10;;;;;;5034729;28;20480;-45
2023/03/19 09:48:13;;;;;;;6.13;4.00;;;17.90;97.50;;;;;;5034703;28;20078;-49
2023/03/19 09:50:38;;;;;;;5.25;3.67;;;17.50;97.60;;;;;;5034648;28;20072;-47
2023/03/19 09:53:11;;;;;;;9.25;3.83;;;17.10;98.30;;;;;;5034384;28;20069;-49
2023/03/19 09:55:49;;;;;;;5.25;3.00;;;16.90;99.20;;;;;;5035447;28;20036;-45
2023/03/19 09:58:20;;;;;;;5.50;2.78;;;16.80;99.30;;;;;;5034758;28;20389;-53
2023/03/19 10:00:49;;;;;;;4.97;3.00;;;16.70;99.10;;;;;;5034207;28;20234;-50
2023/03/19 10:03:22;;;;;;;3.63;2.28;;;16.70;99.10;;;;;;5034430;28;20056;-51
2023/03/19 10:06:09;;;;;;;5.07;3.00;;;16.70;98.80;;;;;;5034403;28;20025;-46
2023/03/19 10:08:40;;;;;;;7.25;3.13;;;16.60;98.70;;;;;;5034002;28;20032;-44
2023/03/19 10:11:31;;;;;;;6.15;2.50;;;16.50;99.10;;;;;;5033628;28;20047;-45
2023/03/19 10:14:34;;;;;;;4.18;2.55;;;16.40;99.30;;;;;;5032815;28;20029;-44
2023/03/19 10:17:03;;;;;;;3.15;2.75;;;16.20;99.40;;;;;;5019345;28;20091;-52
2023/03/19 10:19:46;;;;;;;10.63;3.22;;;16.20;99.50;;;;;;5031561;28;20061;-55
2023/03/19 10:22:18;;;;;;;7.75;2.50;;;16.10;99.90;;;;;;5013103;28;20053;-45
2023/03/19 10:24:45;;;;;;;6.70;2.40;;;16.10;98.90;;;;;;5033720;28;20032;-46
2023/03/19 10:27:14;;;;;;;12.82;2.50;;;16.10;99.00;;;;;;5015885;28;20029;-49
2023/03/19 10:29:42;;;;;;;5.20;1.92;;;16.10;99.20;;;;;;5032915;28;20485;-47
2023/03/19 10:32:36;;;;;;;4.97;2.42;;;16.20;99.20;;;;;;5030262;28;20477;-49
2023/03/19 10:35:11;;;;;;;6.88;2.70;;;16.20;99.50;;;;;;5031775;28;20112;-48
2023/03/19 10:37:37;;;;;;;7.95;4.95;;;16.30;99.70;;;;;;5032386;28;20052;-49
2023/03/19 10:40:18;;;;;;;8.07;3.13;;;16.30;98.80;;;;;;5032313;28;20033;-52
2023/03/19 10:42:54;;;;;;;3.40;2.65;;;16.30;98.80;;;;;;5032330;28;20029;-47
2023/03/19 10:45:27;;;;;;;3.72;2.42;;;16.20;99.20;;;;;;5033211;28;20042;-45
2023/03/19 10:47:54;;;;;;;2.83;2.60;;;16.30;99.70;;;;;;5022173;28;20038;-47
2023/03/19 10:50:28;;;;;;;4.65;3.30;;;16.30;98.90;;;;;;5032732;28;20056;-48
2023/03/19 10:53:24;;;;;;;5.35;3.20;;;16.20;99.10;;;;;;5031209;28;20021;-48
2023/03/19 10:55:54;;;;;;;4.60;2.58;;;16.20;99.60;;;;;;5008068;28;20033;-47
2023/03/19 10:58:24;;;;;;;3.90;3.33;;;16.20;99.90;;;;;;5032669;28;20029;-52
2023/03/19 11:00:58;;;;;;;7.43;2.97;;;16.20;99.30;;;;;;5029968;28;20079;-48
2023/03/19 11:03:50;;;;;;;5.97;3.53;;;16.20;99.00;;;;;;5032505;28;20433;-50
2023/03/19 11:06:17;;;;;;;6.53;2.95;;;16.40;99.10;;;;;;5033029;28;20132;-41
2023/03/19 11:08:56;;;;;;;7.75;3.40;;;16.50;98.70;;;;;;5032788;28;20062;-47
2023/03/19 11:11:41;;;;;;;8.43;3.20;;;16.70;98.90;;;;;;5032953;28;20014;-45
2023/03/19 11:14:20;;;;;;;5.47;3.35;;;16.80;98.30;;;;;;5028084;28;20108;-51
2023/03/19 11:16:55;;;;;;;3.25;2.95;;;16.80;98.70;;;;;;5023399;28;20033;-45
2023/03/19 11:19:29;;;;;;;4.85;3.45;;;16.70;98.70;;;;;;5032597;28;20053;-47
2023/03/19 11:22:16;;;;;;;4.35;3.08;;;16.60;98.60;;;;;;5033305;28;20025;-49
2023/03/19 11:25:10;;;;;;;4.20;3.20;;;16.60;98.70;;;;;;5032820;28;20034;-46
2023/03/19 11:27:35;;;;;;;4.07;3.05;;;16.50;99.10;;;;;;4990783;28;20158;-50
2023/03/19 11:30:12;;;;;;;7.40;3.22;;;16.60;99.20;;;;;;5032957;28;20026;-53
2023/03/19 11:33:01;;;;;;;3.38;3.03;;;16.50;99.20;;;;;;5033156;28;20056;-46
2023/03/19 11:36:00;;;;;;;4.18;2.90;;;16.50;99.20;;;;;;5023396;28;20046;-46
2023/03/19 11:38:47;;;;;;;7.38;2.80;;;16.40;99.50;;;;;;5032747;28;20025;-48
2023/03/19 11:41:37;;;;;;;5.07;3.03;;;16.40;99.50;;;;;;5032619;28;20552;-49
2023/03/19 11:44:12;;;;;;;10.80;4.43;;;16.50;99.70;;;;;;5032588;28;20048;-47
2023/03/19 11:46:43;;;;;;;13.27;3.47;;;16.60;99.60;;;;;;5014261;28;20044;-48
2023/03/19 11:49:24;;;;;;;7.65;3.85;;;16.70;99.60;;;;;;5031560;28;20029;-48
2023/03/19 11:51:59;;;;;;;7.05;3.30;;;16.70;99.30;;;;;;5032422;28;20400;-53
2023/03/19 11:54:43;;;;;;;;;;;16.70;98.80;;;;;;5032574;28;20018;-45
2023/03/19 11:57:32;;;;;;;7.97;3.67;;;16.60;99.00;;;;;;5032748;28;19967;-50
2023/03/19 12:00:17;;;;;;;8.65;3.58;;;16.50;99.20;;;;;;5050488;22;20160;-60
2023/03/19 12:03:01;;;;;;;6.65;3.58;;;16.50;99.40;;;;;;5023116;28;20118;-57
2023/03/19 12:05:45;;;;;;;4.53;3.20;;;16.70;99.90;;;;;;4994650;28;20102;-56
2023/03/19 12:08:29;;;;;;;7.35;3.38;;;16.70;99.10;;;;;;5024767;28;20028;-53
2023/03/19 12:11:03;;;;;;;7.65;4.10;;;16.90;99.50;;;;;;5031676;28;20025;-54
2023/03/19 12:13:59;;;;;;;4.68;3.47;;;17.00;99.00;;;;;;5031943;28;20033;-56
2023/03/19 12:16:57;;;;;;;7.22;3.60;;;17.00;99.10;;;;;;5014026;28;20022;-56
2023/03/19 12:19:44;;;;;;;6.78;3.20;;;17.00;98.30;;;;;;5031540;28;20026;-55
2023/03/19 12:22:43;;;;;;;3.47;3.00;;;16.90;97.60;;;;;;5031874;28;20435;-54
2023/03/19 12:25:21;;;;;;;3.70;3.05;;;16.90;97.90;;;;;;5031633;28;20025;-57
2023/03/19 12:27:53;;;;;;;5.90;2.78;;;16.80;98.30;;;;;;5031673;28;20052;-53
2023/03/19 12:30:40;;;;;;;7.18;3.08;;;16.80;98.50;;;;;;5031390;28;20367;-55
2023/03/19 12:33:18;;;;;;;8.60;2.97;;;16.70;98.30;;;;;;5032009;28;20049;-55
2023/03/19 12:35:48;;;;;;;6.85;3.13;;;16.70;98.70;;;;;;5030546;28;20021;-59
2023/03/19 12:38:36;;;;;;;4.85;3.67;;;16.50;99.30;;;;;;5018154;28;20041;-58
2023/03/19 12:41:18;;;;;;;6.43;3.78;;;16.50;99.90;;;;;;5013590;28;20025;-52
2023/03/19 12:44:00;;;;;;;3.92;3.35;;;16.30;99.90;;;;;;5031239;28;20077;-59
2023/03/19 12:46:32;;;;;;;5.38;3.20;;;16.20;99.90;;;;;;5031260;28;20049;-56
2023/03/19 12:49:09;;;;;;;14.48;8.20;;;16.00;99.90;;;;;;5031649;28;20026;-56
2023/03/19 12:51:40;;;;;;;6.15;4.05;;;15.90;99.90;;;;;;5031459;28;20025;-57
2023/03/19 12:54:29;;;;;;;3.58;2.80;;;15.70;99.90;;;;;;5031309;28;20022;-59
2023/03/19 12:56:57;;;;;;;4.50;2.47;;;15.60;99.90;;;;;;5011690;28;20393;-59